weerbeeld Almere Meer informatie weerbeeld Almere


Onweer radar Meer informatie blitzortung!


Regen radar Meer informatie rain snow radar


Apparatuur in gebruik:

Davis VP2

Meteohub

ALIX 1D

Web-Oke


Het weer levert geen direct gevaar op.    Er zijn geen waarschuwingen afgegeven.

METAR rapporten vliegvelden

   
EHAM - Amsterdam/Schiph, Netherlands
Afstand tot: WZW 42 km
Gewijzigd: 20-08-2018 10:55
Gedeeltelijk bewolkt  
Gedeeltelijk bewolkt  
   Wind: WNW 13 km/h
Wind: WNW 13 km/h
Temperatuur: 21°C
Dauwpunt: 17°C
Vochtigheid: 78%
Barometer: 1019 hPa
Bewolking: Partly Cloudy
Zicht: meer dan 10 km
Bewolking: Gedeeltelijk bewolkt 1600 ft,
Gedeeltelijk bewolkt 2100 ft
EHAM 200855Z 30007KT 250V350 9999 SCT016 SCT021 21/17 Q1019 NOSIG
EHDL - Deelen Rnlafb, Netherlands
Afstand tot: ZO 49 km
Gewijzigd: 20-08-2018 11:25
Grotendeels bewolkt  
Grotendeels bewolkt  
   Wind: WNW 11.1 km/h
Wind: WNW 11.1 km/h
Temperatuur: 21°C
Dauwpunt: 17°C
Vochtigheid: 78%
Barometer: 1019 hPa
Bewolking: Mostly Cloudy
Zicht: meer dan 10 km
Bewolking: Grotendeels bewolkt 1400 ft,
Grotendeels bewolkt 1700 ft,
Grotendeels bewolkt 2200 ft
EHDL 200925Z AUTO 30006KT 260V360 9999 BKN014 BKN017 BKN022 21/17 Q1019 GRN
EHKD - De Kooy (navy), Netherlands
Afstand tot: NW 72 km
Gewijzigd: 20-08-2018 11:25
Grotendeels bewolkt  
Grotendeels bewolkt  
   Wind: WNW 14.8 km/h
Wind: WNW 14.8 km/h
Temperatuur: 18°C
Dauwpunt: 17°C
Vochtigheid: 94%
Barometer: 1019 hPa
Bewolking: Mostly Cloudy
Zicht: meer dan 10 km
Bewolking: Licht bewolkt 400 ft,
Gedeeltelijk bewolkt 1900 ft,
Grotendeels bewolkt 2300 ft
EHKD 200925Z AUTO 30008KT 250V330 9999 FEW004 SCT019 BKN023 18/17 Q1019 REDZ WHT 30005KT 9999 FEW007 SCT017 BKN030
EHRD - Rotterdam Airpor, Netherlands
Afstand tot: ZW 80 km
Gewijzigd: 20-08-2018 10:55
Bewolking  
Bewolking  
   Wind: WNW 9.3 km/h
Wind: WNW 9.3 km/h
Temperatuur: 20°C
Dauwpunt: 17°C
Vochtigheid: 83%
Barometer: 1020 hPa
Bewolking: Overcast
Zicht: meer dan 10 km
Bewolking: Grotendeels bewolkt 1700 ft,
Bewolking 2100 ft
EHRD 200855Z AUTO 29005KT 250V330 9999 BKN017 OVC021 20/17 Q1020 NOSIG
EHVK - Volkel Rnlafb, Netherlands
Afstand tot: ZZO 87 km
Gewijzigd: 20-08-2018 11:25
Grotendeels bewolkt  
Grotendeels bewolkt  
   Wind: Westen 7.4 km/h
Wind: Westen 7.4 km/h
Temperatuur: 21°C
Dauwpunt: 18°C
Vochtigheid: 83%
Barometer: 1019 hPa
Bewolking: Mostly Cloudy
Zicht: meer dan 10 km
Bewolking: Licht bewolkt 1400 ft,
Gedeeltelijk bewolkt 2000 ft,
Grotendeels bewolkt 2300 ft
EHVK 200925Z AUTO 27004KT 260V320 9999 FEW014 SCT020 BKN023 21/18 Q1019 REDZ WHT 25006KT 9999 BKN012 BKN050 BECMG BKN015 BKN050
EHLW - Leeuwarden Rnlaf, Netherlands
Afstand tot: NNO 95 km
Gewijzigd: 20-08-2018 11:25
Bewolking  
Bewolking  
   Wind: NNW 14.8 km/h
Wind: NNW 14.8 km/h
Temperatuur: 19°C
Dauwpunt: 18°C
Vochtigheid: 94%
Barometer: 1019 hPa
Bewolking: Overcast
Zicht: meer dan 10 km
Bewolking: Licht bewolkt 500 ft,
Grotendeels bewolkt 2300 ft,
Bewolking 2700 ft
EHLW 200925Z AUTO 34008KT 300V360 9999 FEW005 BKN023 OVC027 19/18 Q1019 REDZ WHT 32010KT 9999 FEW010 BKN020 TEMPO 4500 DZ SCT005 BKN010 RMK R23

Script ontwikkeld door  Saratoga-weather.org Aangepast voor de template door  Weerstation Leuven

U vindt ons ook hier:

Het Weer Aktueel

UK Metoffice

European Weather Network

Weather Underground

AWEKAS